createdAt,value
2022-10-17T00:00:43.898Z,1.87
2022-10-17T00:05:50.609Z,2.03
2022-10-17T00:10:58.778Z,2.03
2022-10-17T00:16:03.579Z,1.87
2022-10-17T00:21:06.957Z,1.90
2022-10-17T00:26:11.112Z,2.00
2022-10-17T00:31:16.195Z,1.83
2022-10-17T00:36:22.229Z,1.90
2022-10-17T00:41:28.060Z,4.93
2022-10-17T00:46:34.340Z,3.87
2022-10-17T00:51:43.932Z,2.70
2022-10-17T00:56:48.969Z,2.00
2022-10-17T01:02:00.903Z,2.07
2022-10-17T01:07:04.795Z,1.90
2022-10-17T01:12:16.457Z,1.67
2022-10-17T01:17:28.877Z,2.23
2022-10-17T01:22:40.628Z,2.70
2022-10-17T01:28:11.481Z,1.93
2022-10-17T01:33:20.939Z,2.93
2022-10-17T01:38:28.733Z,1.70
2022-10-17T01:43:38.500Z,1.60
2022-10-17T01:48:46.669Z,4.47
2022-10-17T01:53:54.197Z,1.57
2022-10-17T01:59:01.959Z,1.40
2022-10-17T02:04:10.576Z,2.63
2022-10-17T02:09:21.691Z,2.10
2022-10-17T02:14:37.213Z,1.40
2022-10-17T02:19:51.566Z,1.37
2022-10-17T02:25:03.987Z,1.40
2022-10-17T02:30:13.369Z,4.00
2022-10-17T02:35:21.257Z,1.90
2022-10-17T02:40:25.808Z,1.87
2022-10-17T02:45:35.813Z,1.63
2022-10-17T02:50:50.254Z,1.10
2022-10-17T02:55:59.848Z,3.90
2022-10-17T03:01:05.260Z,1.30
2022-10-17T03:06:09.853Z,2.67
2022-10-17T03:11:13.061Z,2.73
2022-10-17T03:16:16.134Z,2.93
2022-10-17T03:21:20.625Z,2.33
2022-10-17T03:26:24.241Z,2.10
2022-10-17T03:31:27.469Z,2.70
2022-10-17T03:36:31.978Z,2.27
2022-10-17T03:41:35.473Z,2.97
2022-10-17T03:46:38.667Z,2.10
2022-10-17T03:51:43.154Z,2.63
2022-10-17T03:56:46.376Z,4.43
2022-10-17T04:01:49.573Z,2.83
2022-10-17T04:06:54.134Z,2.97
2022-10-17T04:11:57.247Z,2.40
2022-10-17T04:17:00.363Z,5.27
2022-10-17T04:22:04.864Z,2.67
2022-10-17T04:27:08.110Z,2.80
2022-10-17T04:32:11.197Z,2.20
2022-10-17T04:37:15.659Z,4.00
2022-10-17T04:42:18.728Z,8.80
2022-10-17T04:47:21.804Z,2.70
2022-10-17T04:52:26.746Z,9.63
2022-10-17T04:57:30.032Z,4.73
2022-10-17T05:02:33.141Z,2.73
2022-10-17T05:07:41.252Z,2.63
2022-10-17T05:12:44.345Z,7.67
2022-10-17T05:17:47.488Z,2.50
2022-10-17T05:22:51.998Z,4.43
2022-10-17T05:27:55.221Z,3.50
2022-10-17T05:32:58.339Z,13.83
2022-10-17T05:38:02.855Z,19.33
2022-10-17T05:43:05.965Z,42.60
2022-10-17T05:48:10.105Z,88.37
2022-10-17T05:53:14.566Z,64.67
2022-10-17T05:58:22.078Z,34.77
2022-10-17T06:03:25.615Z,18.33
2022-10-17T06:08:30.059Z,9.10
2022-10-17T06:13:33.282Z,6.03
2022-10-17T06:18:36.467Z,4.63
2022-10-17T06:23:40.987Z,5.23
2022-10-17T06:28:44.271Z,5.20
2022-10-17T06:33:47.589Z,5.70
2022-10-17T06:38:52.088Z,6.33
2022-10-17T06:43:55.143Z,7.53
2022-10-17T06:48:58.224Z,6.23
2022-10-17T06:54:02.673Z,5.37
2022-10-17T06:59:05.841Z,5.20
2022-10-17T07:04:08.910Z,4.87
2022-10-17T07:09:13.338Z,4.50
2022-10-17T07:14:18.053Z,3.67
2022-10-17T07:19:21.356Z,3.07
2022-10-17T07:24:25.829Z,2.77
2022-10-17T07:29:28.959Z,2.73
2022-10-17T07:34:32.013Z,3.03
2022-10-17T07:39:36.804Z,4.00
2022-10-17T07:44:39.916Z,2.97
2022-10-17T07:49:44.241Z,3.37
2022-10-17T07:54:48.697Z,2.80
2022-10-17T07:59:52.003Z,3.23
2022-10-17T08:04:55.592Z,2.73
2022-10-17T08:10:00.187Z,2.80
2022-10-17T08:15:03.450Z,2.23
2022-10-17T08:20:07.903Z,4.93
2022-10-17T08:25:12.762Z,4.37
2022-10-17T08:30:15.940Z,2.97
2022-10-17T08:35:19.189Z,2.90
2022-10-17T08:40:27.516Z,3.00
2022-10-17T08:45:34.987Z,2.80
2022-10-17T08:50:41.577Z,4.33
2022-10-17T08:55:48.300Z,3.10
2022-10-17T09:01:03.093Z,2.80
2022-10-17T09:06:21.927Z,3.50
2022-10-17T09:11:41.900Z,4.27
2022-10-17T09:16:57.772Z,2.40
2022-10-17T09:22:05.452Z,2.50
2022-10-17T09:27:20.064Z,2.73
2022-10-17T09:32:27.025Z,2.43
2022-10-17T09:37:33.757Z,2.67
2022-10-17T09:42:39.074Z,2.90
2022-10-17T09:47:45.753Z,2.53
2022-10-17T09:52:50.848Z,2.67
2022-10-17T09:57:57.620Z,4.13
2022-10-17T10:03:12.262Z,2.33
2022-10-17T10:08:18.058Z,3.13
2022-10-17T10:13:26.728Z,2.57
2022-10-17T10:18:32.638Z,2.30
2022-10-17T10:23:40.079Z,4.03
2022-10-17T10:28:54.132Z,2.73
2022-10-17T10:33:57.857Z,2.30
2022-10-17T10:39:03.954Z,2.17
2022-10-17T10:44:16.320Z,3.00
2022-10-17T10:49:30.885Z,2.27
2022-10-17T10:59:58.299Z,2.63
2022-10-17T11:05:07.865Z,2.57
2022-10-17T11:10:16.292Z,3.73
2022-10-17T11:15:26.368Z,2.80
2022-10-17T11:20:37.573Z,2.63
2022-10-17T11:25:42.514Z,2.43
2022-10-17T11:31:07.871Z,3.40
2022-10-17T11:36:12.295Z,2.73
2022-10-17T11:41:19.829Z,3.13
2022-10-17T11:46:25.871Z,2.60
2022-10-17T11:57:19.942Z,2.50
2022-10-17T12:02:35.665Z,2.37
2022-10-17T12:07:48.300Z,2.60
2022-10-17T12:12:51.431Z,2.67
2022-10-17T12:17:59.225Z,2.70
2022-10-17T12:23:23.165Z,2.60
2022-10-17T12:28:32.092Z,2.30
2022-10-17T12:33:39.598Z,2.70
2022-10-17T12:38:45.702Z,2.27
2022-10-17T12:43:52.786Z,3.43
2022-10-17T12:49:25.492Z,4.87
2022-10-17T12:54:37.806Z,3.17
2022-10-17T12:59:50.521Z,2.57
2022-10-17T13:05:06.424Z,2.40
2022-10-17T13:10:24.368Z,3.00
2022-10-17T13:15:27.819Z,2.20
2022-10-17T13:20:33.345Z,2.30
2022-10-17T13:25:38.891Z,2.20
2022-10-17T13:30:49.811Z,3.10
2022-10-17T13:36:01.670Z,2.43
2022-10-17T13:41:34.101Z,2.10
2022-10-17T13:46:38.403Z,2.20
2022-10-17T13:51:46.553Z,2.20
2022-10-17T13:56:57.615Z,2.40
2022-10-17T14:02:02.685Z,2.67
2022-10-17T14:07:07.692Z,2.40
2022-10-17T14:12:13.550Z,2.57
2022-10-17T14:17:22.196Z,2.60
2022-10-17T14:22:30.602Z,2.87
2022-10-17T14:27:36.273Z,2.60
2022-10-17T14:32:39.581Z,3.00
2022-10-17T14:37:47.732Z,2.63
2022-10-17T14:42:51.705Z,2.70
2022-10-17T14:47:58.681Z,4.93
2022-10-17T14:53:05.945Z,2.63
2022-10-17T14:58:19.034Z,3.10
2022-10-17T15:03:22.289Z,2.67
2022-10-17T15:08:26.807Z,2.57
2022-10-17T15:13:32.398Z,2.63
2022-10-17T15:18:38.146Z,2.50
2022-10-17T15:23:42.720Z,3.37
2022-10-17T15:28:47.450Z,4.23
2022-10-17T15:33:51.090Z,2.63
2022-10-17T15:38:57.455Z,3.90
2022-10-17T15:44:01.029Z,4.13
2022-10-17T15:49:07.612Z,3.83
2022-10-17T15:59:19.392Z,2.73
2022-10-17T16:04:24.147Z,3.47
2022-10-17T16:09:29.972Z,2.80
2022-10-17T16:14:33.323Z,2.63
2022-10-17T16:19:36.414Z,2.83
2022-10-17T16:24:40.880Z,3.20
2022-10-17T16:29:43.960Z,3.33
2022-10-17T16:34:47.026Z,4.97
2022-10-17T16:39:53.543Z,2.80
2022-10-17T16:44:56.649Z,5.23
2022-10-17T16:49:59.704Z,6.77
2022-10-17T16:55:04.471Z,5.93
2022-10-17T17:00:09.228Z,6.43
2022-10-17T17:05:13.014Z,7.50
2022-10-17T17:10:17.755Z,6.03
2022-10-17T17:15:20.825Z,5.10
2022-10-17T17:20:23.900Z,5.07
2022-10-17T17:25:28.365Z,5.10
2022-10-17T17:30:31.425Z,4.73
2022-10-17T17:35:34.611Z,6.53
2022-10-17T17:40:49.632Z,8.77
2022-10-17T17:45:55.083Z,7.27
2022-10-17T17:50:58.133Z,7.33
2022-10-17T17:56:07.073Z,7.80
2022-10-17T18:01:14.870Z,7.47
2022-10-17T18:06:19.055Z,4.67
2022-10-17T18:11:23.813Z,5.60
2022-10-17T18:16:27.369Z,3.90
2022-10-17T18:21:30.470Z,3.50
2022-10-17T18:26:35.427Z,4.77
2022-10-17T18:31:38.696Z,3.90
2022-10-17T18:36:41.785Z,3.70
2022-10-17T18:41:46.301Z,5.33
2022-10-17T18:46:49.989Z,4.10
2022-10-17T18:51:53.218Z,4.10
2022-10-17T18:56:57.929Z,4.83
2022-10-17T19:02:01.138Z,5.00
2022-10-17T19:07:04.439Z,4.80
2022-10-17T19:12:08.949Z,4.60
2022-10-17T19:17:12.065Z,5.17
2022-10-17T19:22:15.154Z,13.20
2022-10-17T19:27:20.465Z,16.27
2022-10-17T19:32:23.575Z,11.83
2022-10-17T19:37:28.575Z,9.00
2022-10-17T19:42:35.063Z,5.87
2022-10-17T19:47:39.832Z,5.27
2022-10-17T19:52:42.961Z,4.60
2022-10-17T19:57:47.723Z,4.50
2022-10-17T20:02:51.157Z,4.63
2022-10-17T20:07:54.228Z,5.33
2022-10-17T20:12:58.792Z,4.40
2022-10-17T20:18:02.101Z,4.73
2022-10-17T20:23:06.195Z,4.80
2022-10-17T20:28:10.900Z,9.17
2022-10-17T20:33:15.725Z,5.00
2022-10-17T20:38:18.793Z,4.97
2022-10-17T20:43:23.248Z,5.10
2022-10-17T20:48:28.176Z,4.93
2022-10-17T20:53:37.032Z,5.07
2022-10-17T20:58:41.928Z,4.60
2022-10-17T21:03:46.634Z,4.37
2022-10-17T21:08:51.467Z,6.73
2022-10-17T21:14:00.931Z,4.83
2022-10-17T21:19:04.475Z,3.80
2022-10-17T21:24:12.480Z,3.97
2022-10-17T21:29:17.136Z,5.13
2022-10-17T21:34:22.120Z,4.03
2022-10-17T21:39:25.245Z,4.43
2022-10-17T21:44:29.810Z,3.87
2022-10-17T21:49:34.026Z,5.13
2022-10-17T21:54:37.179Z,3.93
2022-10-17T21:59:41.749Z,5.53
2022-10-17T22:04:44.840Z,5.93
2022-10-17T22:09:47.923Z,5.33
2022-10-17T22:14:52.513Z,6.30
2022-10-17T22:19:55.607Z,4.73
2022-10-17T22:24:58.679Z,3.50
2022-10-17T22:30:03.165Z,6.63
2022-10-17T22:35:07.240Z,5.83
2022-10-17T22:40:11.128Z,3.80
2022-10-17T22:45:15.843Z,4.90
2022-10-17T22:50:19.400Z,4.20
2022-10-17T22:55:22.660Z,4.30
2022-10-17T23:05:31.601Z,5.60
2022-10-17T23:10:35.283Z,4.63
2022-10-17T23:15:39.929Z,5.33
2022-10-17T23:20:43.164Z,3.67
2022-10-17T23:25:46.587Z,4.23
2022-10-17T23:30:51.115Z,3.10
2022-10-17T23:35:54.315Z,3.37
2022-10-17T23:40:57.452Z,3.30
2022-10-17T23:46:01.997Z,3.63
2022-10-17T23:51:05.186Z,3.50
2022-10-17T23:56:10.040Z,3.60
